createdAt,value
2024-01-16T00:04:32.484Z,58.87
2024-01-16T00:09:38.365Z,58.46
2024-01-16T00:14:41.169Z,57.97
2024-01-16T00:19:43.812Z,57.79
2024-01-16T00:24:46.093Z,57.63
2024-01-16T00:29:48.501Z,57.73
2024-01-16T00:34:50.912Z,57.63
2024-01-16T00:39:53.435Z,56.93
2024-01-16T00:44:55.766Z,56.82
2024-01-16T00:49:58.046Z,56.65
2024-01-16T00:55:00.754Z,56.81
2024-01-16T01:00:03.123Z,57.13
2024-01-16T01:05:05.804Z,57.26
2024-01-16T01:10:08.669Z,56.88
2024-01-16T01:15:11.982Z,56.55
2024-01-16T01:20:14.533Z,56.73
2024-01-16T01:25:17.207Z,56.92
2024-01-16T01:30:19.756Z,56.89
2024-01-16T01:35:22.177Z,56.85
2024-01-16T01:40:24.429Z,56.39
2024-01-16T01:45:26.883Z,56.05
2024-01-16T01:50:29.380Z,56.65
2024-01-16T01:55:32.209Z,56.72
2024-01-16T02:00:35.271Z,56.48
2024-01-16T02:05:40.432Z,56.20
2024-01-16T02:10:47.436Z,56.29
2024-01-16T02:15:49.585Z,56.25
2024-01-16T02:20:52.071Z,56.34
2024-01-16T02:25:55.161Z,56.59
2024-01-16T02:30:58.077Z,56.89
2024-01-16T02:36:00.271Z,56.27
2024-01-16T02:41:02.517Z,56.34
2024-01-16T02:46:05.183Z,56.63
2024-01-16T02:51:07.357Z,57.01
2024-01-16T02:56:10.318Z,57.60
2024-01-16T03:01:12.919Z,57.27
2024-01-16T03:06:26.158Z,57.69
2024-01-16T03:11:30.109Z,57.73
2024-01-16T03:16:33.686Z,57.79
2024-01-16T03:21:35.912Z,58.05
2024-01-16T03:26:42.083Z,58.02
2024-01-16T03:31:44.488Z,57.60
2024-01-16T03:36:46.658Z,57.42
2024-01-16T03:41:48.845Z,57.31
2024-01-16T03:46:51.147Z,57.78
2024-01-16T03:51:53.485Z,57.70
2024-01-16T03:56:56.066Z,58.12
2024-01-16T04:01:59.006Z,57.71
2024-01-16T04:07:01.295Z,57.68
2024-01-16T04:12:04.154Z,57.64
2024-01-16T04:17:07.426Z,57.93
2024-01-16T04:22:10.633Z,57.93
2024-01-16T04:27:14.018Z,58.21
2024-01-16T04:32:16.230Z,59.40
2024-01-16T04:37:18.562Z,61.24
2024-01-16T04:42:20.864Z,61.72
2024-01-16T04:47:23.937Z,62.29
2024-01-16T04:52:26.304Z,62.75
2024-01-16T04:57:28.640Z,61.85
2024-01-16T05:02:30.871Z,61.45
2024-01-16T05:07:33.201Z,60.15
2024-01-16T05:12:35.401Z,59.88
2024-01-16T05:17:37.733Z,60.03
2024-01-16T05:22:40.545Z,59.70
2024-01-16T05:27:44.796Z,59.88
2024-01-16T05:32:47.323Z,59.55
2024-01-16T05:37:49.657Z,59.08
2024-01-16T05:42:51.895Z,58.69
2024-01-16T05:47:54.202Z,57.92
2024-01-16T05:52:56.423Z,57.67
2024-01-16T05:57:58.728Z,56.96
2024-01-16T06:03:01.168Z,56.59
2024-01-16T06:08:04.358Z,56.76
2024-01-16T06:13:06.560Z,58.31
2024-01-16T06:18:10.415Z,58.68
2024-01-16T06:23:12.689Z,58.63
2024-01-16T06:28:14.799Z,58.79
2024-01-16T06:33:17.058Z,59.48
2024-01-16T06:38:19.933Z,59.84
2024-01-16T06:43:22.179Z,59.83
2024-01-16T06:48:24.962Z,59.12
2024-01-16T06:53:27.426Z,59.64
2024-01-16T06:58:29.707Z,59.26
2024-01-16T07:03:31.968Z,58.60
2024-01-16T07:08:34.526Z,58.84
2024-01-16T07:13:36.778Z,58.92
2024-01-16T07:18:40.315Z,59.33
2024-01-16T07:23:42.866Z,59.23
2024-01-16T07:28:45.410Z,58.92
2024-01-16T07:33:47.744Z,58.77
2024-01-16T07:38:50.047Z,59.29
2024-01-16T07:43:52.281Z,59.14
2024-01-16T07:48:54.571Z,58.62
2024-01-16T07:54:08.120Z,58.39
2024-01-16T07:59:10.381Z,58.24
2024-01-16T08:04:12.622Z,59.05
2024-01-16T08:09:15.575Z,59.78
2024-01-16T08:14:17.726Z,59.35
2024-01-16T08:19:20.361Z,59.25
2024-01-16T08:24:23.110Z,58.94
2024-01-16T08:29:26.047Z,59.26
2024-01-16T08:34:28.445Z,59.16
2024-01-16T08:39:34.522Z,59.72
2024-01-16T08:44:36.720Z,59.40
2024-01-16T08:49:40.046Z,59.32
2024-01-16T08:54:42.330Z,59.06
2024-01-16T08:59:44.478Z,59.01
2024-01-16T09:04:47.133Z,58.78
2024-01-16T09:09:49.322Z,59.08
2024-01-16T09:14:51.609Z,58.85
2024-01-16T09:19:53.795Z,58.08
2024-01-16T09:24:55.932Z,57.91
2024-01-16T09:29:58.206Z,58.17
2024-01-16T09:35:02.553Z,57.70
2024-01-16T09:40:06.612Z,58.02
2024-01-16T09:45:10.734Z,58.02
2024-01-16T09:50:13.693Z,57.75
2024-01-16T09:55:16.493Z,57.14
2024-01-16T10:00:18.990Z,57.26
2024-01-16T10:05:22.432Z,57.34
2024-01-16T10:10:34.358Z,57.15
2024-01-16T10:15:41.176Z,56.45
2024-01-16T10:20:43.350Z,56.12
2024-01-16T10:25:45.478Z,56.38
2024-01-16T10:30:47.755Z,55.64
2024-01-16T10:35:50.114Z,55.63
2024-01-16T10:41:06.872Z,55.25
2024-01-16T10:46:13.617Z,55.29
2024-01-16T10:51:16.740Z,55.25
2024-01-16T10:56:20.731Z,54.99
2024-01-16T11:01:23.344Z,54.86
2024-01-16T11:06:25.959Z,54.96
2024-01-16T11:11:29.103Z,55.06
2024-01-16T11:16:33.985Z,54.80
2024-01-16T11:21:38.578Z,54.41
2024-01-16T11:26:44.626Z,54.58
2024-01-16T11:31:46.865Z,54.33
2024-01-16T11:36:56.360Z,54.58
2024-01-16T11:41:59.395Z,54.95
2024-01-16T11:47:04.222Z,54.18
2024-01-16T11:52:06.662Z,53.68
2024-01-16T11:57:23.774Z,53.41
2024-01-16T12:02:49.270Z,53.45
2024-01-16T12:07:54.274Z,52.53
2024-01-16T12:13:05.569Z,52.28
2024-01-16T12:18:13.671Z,51.94
2024-01-16T12:23:23.428Z,51.65
2024-01-16T12:28:32.188Z,51.16
2024-01-16T12:33:36.055Z,50.69
2024-01-16T12:38:38.388Z,50.44
2024-01-16T12:43:41.194Z,50.66
2024-01-16T12:48:52.859Z,50.66
2024-01-16T12:54:15.628Z,50.99
2024-01-16T12:59:19.375Z,50.16
2024-01-16T13:04:22.956Z,50.17
2024-01-16T13:09:25.137Z,50.09
2024-01-16T13:14:27.856Z,50.31
2024-01-16T13:19:34.910Z,50.25
2024-01-16T13:24:37.522Z,50.20
2024-01-16T13:29:41.765Z,50.51
2024-01-16T13:34:50.213Z,50.98
2024-01-16T13:39:52.396Z,51.36
2024-01-16T13:44:55.857Z,51.92
2024-01-16T13:49:58.243Z,51.81
2024-01-16T13:55:00.761Z,51.84
2024-01-16T14:00:05.016Z,52.33
2024-01-16T14:05:07.416Z,52.56
2024-01-16T14:10:13.702Z,53.12
2024-01-16T14:15:21.169Z,53.20
2024-01-16T14:20:27.754Z,53.12
2024-01-16T14:25:30.823Z,53.03
2024-01-16T14:30:37.528Z,52.90
2024-01-16T14:35:40.127Z,53.27
2024-01-16T14:40:42.304Z,53.51
2024-01-16T14:45:44.534Z,53.59
2024-01-16T14:50:48.703Z,54.06
2024-01-16T14:55:53.305Z,53.77
2024-01-16T15:00:57.159Z,53.89
2024-01-16T15:05:59.451Z,53.91
2024-01-16T15:11:01.773Z,53.99
2024-01-16T15:16:04.300Z,53.93
2024-01-16T15:21:06.520Z,54.64
2024-01-16T15:26:08.781Z,55.27
2024-01-16T15:31:11.130Z,55.81
2024-01-16T15:36:13.341Z,55.79
2024-01-16T15:41:15.645Z,56.15
2024-01-16T15:46:18.047Z,56.32
2024-01-16T15:51:20.416Z,56.70
2024-01-16T15:56:22.828Z,57.17
2024-01-16T16:01:24.982Z,57.51
2024-01-16T16:06:27.262Z,57.69
2024-01-16T16:11:29.720Z,58.02
2024-01-16T16:16:34.896Z,58.14
2024-01-16T16:21:37.411Z,58.62
2024-01-16T16:26:45.096Z,58.25
2024-01-16T16:31:47.416Z,57.54
2024-01-16T16:36:49.608Z,56.60
2024-01-16T16:41:52.432Z,55.90
2024-01-16T16:46:54.706Z,55.57
2024-01-16T16:51:57.650Z,55.38
2024-01-16T16:57:00.000Z,54.71
2024-01-16T17:02:02.247Z,54.64
2024-01-16T17:07:04.965Z,54.67
2024-01-16T17:12:07.880Z,54.49
2024-01-16T17:17:11.100Z,54.46
2024-01-16T17:22:13.268Z,54.49
2024-01-16T17:27:15.469Z,54.93
2024-01-16T17:32:19.760Z,55.16
2024-01-16T17:37:21.961Z,56.06
2024-01-16T17:42:24.382Z,56.18
2024-01-16T17:47:27.355Z,57.04
2024-01-16T17:52:30.597Z,57.00
2024-01-16T17:57:32.960Z,57.07
2024-01-16T18:02:35.195Z,57.27
2024-01-16T18:07:39.050Z,57.23
2024-01-16T18:12:41.926Z,57.30
2024-01-16T18:17:46.360Z,57.41
2024-01-16T18:22:57.272Z,57.35
2024-01-16T18:28:00.868Z,57.44
2024-01-16T18:33:04.481Z,57.49
2024-01-16T18:38:09.010Z,57.21
2024-01-16T18:48:31.154Z,57.13
2024-01-16T18:53:33.469Z,57.07
2024-01-16T18:58:35.598Z,56.98
2024-01-16T19:03:37.836Z,57.31
2024-01-16T19:08:44.046Z,57.04
2024-01-16T19:13:46.395Z,57.25
2024-01-16T19:18:48.671Z,57.30
2024-01-16T19:23:51.660Z,57.53
2024-01-16T19:28:54.182Z,57.03
2024-01-16T19:33:56.606Z,57.11
2024-01-16T19:38:59.550Z,56.69
2024-01-16T19:44:02.116Z,56.87
2024-01-16T19:49:06.810Z,56.76
2024-01-16T19:54:09.613Z,56.64
2024-01-16T19:59:12.003Z,56.68
2024-01-16T20:04:14.238Z,56.10
2024-01-16T20:09:20.248Z,56.41
2024-01-16T20:14:22.824Z,56.47
2024-01-16T20:19:25.037Z,56.77
2024-01-16T20:24:30.508Z,56.71
2024-01-16T20:29:32.664Z,56.47
2024-01-16T20:34:35.646Z,56.32
2024-01-16T20:39:37.813Z,56.33
2024-01-16T20:44:40.096Z,56.39
2024-01-16T20:49:42.432Z,56.71
2024-01-16T20:54:44.660Z,56.36
2024-01-16T20:59:47.366Z,56.72
2024-01-16T21:04:49.614Z,56.59
2024-01-16T21:09:51.829Z,56.40
2024-01-16T21:14:53.988Z,57.27
2024-01-16T21:19:56.216Z,57.18
2024-01-16T21:24:58.455Z,56.64
2024-01-16T21:30:00.786Z,56.81
2024-01-16T21:35:03.069Z,57.04
2024-01-16T21:40:06.800Z,56.97
2024-01-16T21:45:09.297Z,57.18
2024-01-16T21:50:13.495Z,57.01
2024-01-16T21:55:16.151Z,57.19
2024-01-16T22:00:19.300Z,57.11
2024-01-16T22:05:21.859Z,57.41
2024-01-16T22:10:24.735Z,57.05
2024-01-16T22:15:27.276Z,57.32
2024-01-16T22:20:33.691Z,56.53
2024-01-16T22:25:36.024Z,56.87
2024-01-16T22:30:38.300Z,57.06
2024-01-16T22:35:40.508Z,57.45
2024-01-16T22:40:42.671Z,57.47
2024-01-16T22:45:46.674Z,56.85
2024-01-16T22:50:51.098Z,56.99
2024-01-16T22:55:53.340Z,57.03
2024-01-16T23:00:55.600Z,57.29
2024-01-16T23:05:58.251Z,56.59
2024-01-16T23:11:01.320Z,56.74
2024-01-16T23:16:04.115Z,56.66
2024-01-16T23:21:07.023Z,56.21
2024-01-16T23:26:11.473Z,56.53
2024-01-16T23:31:14.462Z,56.76
2024-01-16T23:36:17.708Z,56.49
2024-01-16T23:41:20.738Z,56.16
2024-01-16T23:46:22.891Z,56.69
2024-01-16T23:51:25.388Z,56.74
2024-01-16T23:56:27.635Z,57.20
